createdAt,value
2018-08-23T00:01:37.438Z,6.00
2018-08-23T00:04:10.488Z,7.00
2018-08-23T00:06:58.644Z,6.10
2018-08-23T00:09:27.226Z,6.50
2018-08-23T00:11:56.447Z,6.47
2018-08-23T00:14:25.409Z,5.77
2018-08-23T00:16:54.396Z,6.07
2018-08-23T00:19:23.439Z,6.50
2018-08-23T00:21:52.278Z,5.90
2018-08-23T00:24:24.597Z,6.73
2018-08-23T00:26:54.728Z,6.20
2018-08-23T00:29:38.675Z,6.00
2018-08-23T00:32:08.281Z,6.00
2018-08-23T00:34:38.253Z,6.20
2018-08-23T00:37:07.857Z,7.17
2018-08-23T00:39:36.470Z,7.40
2018-08-23T00:42:09.390Z,7.67
2018-08-23T00:44:58.838Z,6.77
2018-08-23T00:47:31.105Z,6.50
2018-08-23T00:50:00.167Z,6.73
2018-08-23T00:52:40.978Z,6.43
2018-08-23T00:55:18.139Z,6.73
2018-08-23T00:57:47.562Z,7.63
2018-08-23T01:00:18.629Z,7.87
2018-08-23T01:02:49.462Z,6.50
2018-08-23T01:05:23.379Z,7.10
2018-08-23T01:07:52.502Z,6.73
2018-08-23T01:10:21.005Z,6.70
2018-08-23T01:12:55.513Z,7.70
2018-08-23T01:15:24.034Z,6.33
2018-08-23T01:18:07.420Z,7.00
2018-08-23T01:20:35.940Z,7.17
2018-08-23T01:23:04.642Z,7.60
2018-08-23T01:25:36.375Z,7.30
2018-08-23T01:28:06.414Z,7.77
2018-08-23T01:30:35.481Z,7.50
2018-08-23T01:33:04.153Z,7.50
2018-08-23T01:35:32.696Z,7.90
2018-08-23T01:38:01.242Z,7.00
2018-08-23T01:40:29.779Z,7.23
2018-08-23T01:42:58.291Z,7.37
2018-08-23T01:45:26.830Z,7.67
2018-08-23T01:47:56.207Z,7.27
2018-08-23T01:50:25.558Z,7.20
2018-08-23T01:52:55.340Z,7.60
2018-08-23T01:55:24.700Z,7.30
2018-08-23T01:57:53.739Z,7.13
2018-08-23T02:00:23.790Z,6.90
2018-08-23T02:02:52.358Z,7.70
2018-08-23T02:05:20.917Z,7.53
2018-08-23T02:07:49.479Z,7.90
2018-08-23T02:10:18.062Z,7.60
2018-08-23T02:12:53.862Z,7.60
2018-08-23T02:15:22.682Z,7.53
2018-08-23T02:17:53.868Z,7.30
2018-08-23T02:20:23.425Z,7.60
2018-08-23T02:22:52.448Z,9.10
2018-08-23T02:25:20.963Z,7.23
2018-08-23T02:28:09.268Z,8.10
2018-08-23T02:30:53.086Z,8.17
2018-08-23T02:33:21.665Z,9.07
2018-08-23T02:36:22.485Z,8.37
2018-08-23T02:39:08.800Z,9.07
2018-08-23T02:41:37.411Z,8.57
2018-08-23T02:44:05.981Z,8.13
2018-08-23T02:46:34.471Z,9.20
2018-08-23T02:49:03.047Z,8.60
2018-08-23T02:51:38.704Z,8.53
2018-08-23T02:54:11.086Z,7.50
2018-08-23T02:56:39.803Z,8.50
2018-08-23T02:59:08.866Z,8.00
2018-08-23T03:01:41.749Z,7.80
2018-08-23T03:04:15.818Z,8.00
2018-08-23T03:06:51.523Z,8.40
2018-08-23T03:09:24.865Z,8.23
2018-08-23T03:11:55.627Z,8.00
2018-08-23T03:14:25.161Z,8.00
2018-08-23T03:17:28.415Z,8.27
2018-08-23T03:20:01.021Z,7.90
2018-08-23T03:22:30.491Z,8.00
2018-08-23T03:25:01.064Z,7.67
2018-08-23T03:27:30.542Z,8.03
2018-08-23T03:29:59.463Z,8.97
2018-08-23T03:32:28.307Z,7.77
2018-08-23T03:34:57.442Z,8.70
2018-08-23T03:37:25.991Z,7.30
2018-08-23T03:39:54.511Z,7.47
2018-08-23T03:42:24.338Z,8.03
2018-08-23T03:44:54.138Z,8.90
2018-08-23T03:47:23.132Z,8.47
2018-08-23T03:49:52.028Z,8.97
2018-08-23T03:52:22.048Z,8.37
2018-08-23T03:54:56.605Z,7.97
2018-08-23T03:57:29.342Z,8.50
2018-08-23T03:59:57.966Z,7.60
2018-08-23T04:02:26.606Z,8.27
2018-08-23T04:05:09.183Z,7.83
2018-08-23T04:07:39.198Z,8.17
2018-08-23T04:10:07.783Z,8.57
2018-08-23T04:12:39.482Z,8.47
2018-08-23T04:15:23.546Z,8.63
2018-08-23T04:17:52.318Z,8.07
2018-08-23T04:20:20.866Z,9.17
2018-08-23T04:22:49.534Z,7.70
2018-08-23T04:25:18.239Z,9.60
2018-08-23T04:27:46.907Z,8.80
2018-08-23T04:30:15.598Z,8.10
2018-08-23T04:32:46.595Z,9.03
2018-08-23T04:35:21.124Z,8.43
2018-08-23T04:37:50.339Z,8.20
2018-08-23T04:40:19.171Z,7.90
2018-08-23T04:42:47.716Z,8.37
2018-08-23T04:45:19.508Z,7.83
2018-08-23T04:47:53.760Z,8.13
2018-08-23T04:50:23.760Z,8.20
2018-08-23T04:52:52.290Z,8.40
2018-08-23T04:55:20.842Z,8.60
2018-08-23T04:57:49.343Z,8.73
2018-08-23T05:00:18.051Z,8.37
2018-08-23T05:02:46.586Z,8.23
2018-08-23T05:05:15.087Z,8.57
2018-08-23T05:07:44.647Z,9.10
2018-08-23T05:10:13.219Z,9.27
2018-08-23T05:12:41.713Z,8.43
2018-08-23T05:15:10.255Z,8.67
2018-08-23T05:17:38.837Z,9.07
2018-08-23T05:20:07.651Z,8.67
2018-08-23T05:22:36.232Z,8.87
2018-08-23T05:25:13.348Z,9.60
2018-08-23T05:27:58.520Z,9.27
2018-08-23T05:30:28.535Z,9.57
2018-08-23T05:33:02.651Z,9.80
2018-08-23T05:35:31.855Z,9.90
2018-08-23T05:38:01.160Z,10.03
2018-08-23T05:40:34.186Z,9.77
2018-08-23T05:43:02.760Z,10.70
2018-08-23T05:45:36.521Z,10.20
2018-08-23T05:48:15.652Z,9.80
2018-08-23T05:50:44.633Z,9.80
2018-08-23T05:53:14.995Z,9.97
2018-08-23T05:55:43.675Z,9.93
2018-08-23T05:58:27.763Z,9.80
2018-08-23T06:00:56.251Z,9.80
2018-08-23T06:03:24.804Z,10.93
2018-08-23T06:05:53.771Z,10.40
2018-08-23T06:08:22.413Z,8.63
2018-08-23T06:10:53.457Z,9.47
2018-08-23T06:13:21.983Z,9.50
2018-08-23T06:15:54.814Z,10.03
2018-08-23T06:18:23.936Z,12.50
2018-08-23T06:20:52.841Z,11.10
2018-08-23T06:23:21.761Z,10.43
2018-08-23T06:25:50.639Z,10.97
2018-08-23T06:28:24.801Z,9.80
2018-08-23T06:30:58.652Z,11.60
2018-08-23T06:33:39.084Z,11.33
2018-08-23T06:36:09.128Z,11.37
2018-08-23T06:38:38.676Z,12.37
2018-08-23T06:41:08.375Z,12.80
2018-08-23T06:43:36.895Z,14.67
2018-08-23T06:46:05.960Z,14.27
2018-08-23T06:48:34.429Z,12.87
2018-08-23T06:51:04.151Z,11.43
2018-08-23T06:53:43.300Z,11.50
2018-08-23T06:56:11.883Z,11.37
2018-08-23T06:58:40.484Z,11.23
2018-08-23T07:01:14.147Z,11.50
2018-08-23T07:03:51.175Z,11.57
2018-08-23T07:06:20.256Z,10.60
2018-08-23T07:08:48.806Z,10.53
2018-08-23T07:11:21.221Z,10.43
2018-08-23T07:13:56.360Z,8.63
2018-08-23T07:16:25.238Z,10.03
2018-08-23T07:18:53.797Z,9.80
2018-08-23T07:21:23.649Z,9.90
2018-08-23T07:23:52.251Z,9.43
2018-08-23T07:26:20.846Z,10.10
2018-08-23T07:28:49.319Z,9.47
2018-08-23T07:31:17.833Z,9.80
2018-08-23T07:33:50.655Z,9.40
2018-08-23T07:36:30.027Z,8.53
2018-08-23T07:38:58.900Z,9.57
2018-08-23T07:41:27.728Z,9.57
2018-08-23T07:43:58.379Z,10.50
2018-08-23T07:46:26.900Z,9.93
2018-08-23T07:48:56.115Z,9.00
2018-08-23T07:51:25.638Z,7.90
2018-08-23T07:53:57.354Z,9.10
2018-08-23T07:56:27.348Z,9.30
2018-08-23T07:58:57.173Z,8.97
2018-08-23T08:01:28.549Z,8.50
2018-08-23T08:03:58.231Z,8.00
2018-08-23T08:06:27.595Z,9.80
2018-08-23T08:09:00.852Z,8.60
2018-08-23T08:11:39.423Z,9.90
2018-08-23T08:14:14.039Z,8.20
2018-08-23T08:16:42.571Z,7.77
2018-08-23T08:19:11.760Z,7.63
2018-08-23T08:21:40.369Z,8.90
2018-08-23T08:24:08.986Z,7.60
2018-08-23T08:26:37.589Z,7.50
2018-08-23T08:29:06.690Z,9.20
2018-08-23T08:31:35.221Z,7.77
2018-08-23T08:34:03.847Z,7.23
2018-08-23T08:36:33.437Z,8.77
2018-08-23T08:39:03.448Z,8.00
2018-08-23T08:41:37.251Z,8.37
2018-08-23T08:44:05.770Z,8.53
2018-08-23T08:46:34.394Z,8.30
2018-08-23T08:49:02.892Z,8.20
2018-08-23T08:51:32.786Z,8.48
2018-08-23T08:54:02.941Z,9.17
2018-08-23T08:56:36.839Z,8.13
2018-08-23T08:59:05.551Z,6.97
2018-08-23T09:01:34.072Z,7.23
2018-08-23T09:04:02.643Z,7.77
2018-08-23T09:06:36.494Z,8.40
2018-08-23T09:09:21.150Z,6.97
2018-08-23T09:11:49.891Z,8.43
2018-08-23T09:14:18.450Z,7.03
2018-08-23T09:16:46.975Z,6.63
2018-08-23T09:19:15.622Z,8.40
2018-08-23T09:21:45.080Z,7.47
2018-08-23T09:24:25.932Z,6.90
2018-08-23T09:26:54.757Z,6.93
2018-08-23T09:29:35.019Z,6.33
2018-08-23T09:32:12.471Z,6.53
2018-08-23T09:34:41.665Z,5.97
2018-08-23T09:37:10.490Z,6.37
2018-08-23T09:39:39.772Z,6.90
2018-08-23T09:42:08.611Z,6.53
2018-08-23T09:45:40.708Z,5.90
2018-08-23T09:48:09.553Z,6.73
2018-08-23T09:50:38.075Z,6.20
2018-08-23T09:53:25.392Z,6.40
2018-08-23T09:55:55.758Z,6.43
2018-08-23T09:58:29.818Z,6.10
2018-08-23T10:01:04.035Z,6.60
2018-08-23T10:03:37.816Z,6.37
2018-08-23T10:06:11.891Z,6.60
2018-08-23T10:08:45.694Z,7.33
2018-08-23T10:11:20.345Z,6.27
2018-08-23T10:13:54.246Z,6.40
2018-08-23T10:16:28.133Z,6.23
2018-08-23T10:19:00.517Z,5.57
2018-08-23T10:21:34.590Z,5.50
2018-08-23T10:24:16.888Z,6.10
2018-08-23T10:26:45.947Z,5.50
2018-08-23T10:29:14.703Z,6.10
2018-08-23T10:31:43.536Z,5.37
2018-08-23T10:34:12.018Z,5.30
2018-08-23T10:36:40.561Z,5.93
2018-08-23T10:39:11.023Z,5.20
2018-08-23T10:41:39.598Z,5.37
2018-08-23T10:44:08.154Z,5.70
2018-08-23T10:46:42.864Z,4.97
2018-08-23T10:49:11.371Z,5.40
2018-08-23T10:51:39.920Z,4.97
2018-08-23T10:54:08.410Z,5.57
2018-08-23T10:56:36.930Z,6.03
2018-08-23T10:59:06.815Z,5.90
2018-08-23T11:01:35.267Z,5.40
2018-08-23T11:04:05.603Z,6.30
2018-08-23T11:06:34.754Z,5.90
2018-08-23T11:09:08.781Z,6.83
2018-08-23T11:11:38.456Z,4.60
2018-08-23T11:14:12.315Z,4.93
2018-08-23T11:16:46.227Z,4.83
2018-08-23T11:19:20.043Z,4.97
2018-08-23T11:21:48.614Z,4.57
2018-08-23T11:24:17.168Z,4.40
2018-08-23T11:26:45.729Z,4.60
2018-08-23T11:29:14.268Z,5.33
2018-08-23T11:31:42.998Z,4.10
2018-08-23T11:34:11.515Z,4.03
2018-08-23T11:36:40.339Z,4.50
2018-08-23T11:39:09.513Z,4.73
2018-08-23T11:41:38.047Z,4.33
2018-08-23T11:44:06.653Z,4.03
2018-08-23T11:46:35.240Z,4.80
2018-08-23T11:49:03.779Z,5.00
2018-08-23T11:51:32.447Z,4.80
2018-08-23T11:54:01.098Z,4.07
2018-08-23T11:56:29.600Z,4.57
2018-08-23T11:58:58.403Z,3.80
2018-08-23T12:01:27.032Z,4.10
2018-08-23T12:03:55.549Z,4.53
2018-08-23T12:06:24.219Z,3.73
2018-08-23T12:08:53.290Z,3.70
2018-08-23T12:11:21.840Z,4.00
2018-08-23T12:13:51.178Z,3.90
2018-08-23T12:16:20.041Z,4.17
2018-08-23T12:18:48.946Z,4.63
2018-08-23T12:21:17.471Z,5.03
2018-08-23T12:23:46.210Z,4.13
2018-08-23T12:26:14.792Z,4.67
2018-08-23T12:28:48.444Z,4.97
2018-08-23T12:31:17.672Z,4.30
2018-08-23T12:33:46.265Z,4.40
2018-08-23T12:36:19.020Z,3.93
2018-08-23T12:38:52.998Z,4.17
2018-08-23T12:41:26.887Z,3.80
2018-08-23T12:43:56.645Z,4.73
2018-08-23T12:46:25.150Z,4.70
2018-08-23T12:48:58.710Z,5.27
2018-08-23T12:51:27.225Z,3.93
2018-08-23T12:53:55.884Z,3.43
2018-08-23T12:56:24.525Z,4.60
2018-08-23T12:58:53.271Z,3.97
2018-08-23T13:01:21.859Z,3.60
2018-08-23T13:03:50.698Z,4.40
2018-08-23T13:06:19.953Z,3.67
2018-08-23T13:08:48.631Z,4.73
2018-08-23T13:11:17.323Z,4.70
2018-08-23T13:13:46.105Z,4.37
2018-08-23T13:16:14.716Z,4.00
2018-08-23T13:18:43.497Z,3.93
2018-08-23T13:21:12.031Z,4.37
2018-08-23T13:23:44.869Z,4.30
2018-08-23T13:26:13.547Z,4.00
2018-08-23T13:28:42.262Z,3.73
2018-08-23T13:31:10.796Z,4.93
2018-08-23T13:33:39.385Z,3.90
2018-08-23T13:36:08.579Z,4.70
2018-08-23T13:38:37.405Z,3.60
2018-08-23T13:41:06.001Z,4.20
2018-08-23T13:43:35.193Z,3.70
2018-08-23T13:46:04.371Z,4.43
2018-08-23T13:48:33.915Z,4.40
2018-08-23T13:51:02.502Z,4.47
2018-08-23T13:53:31.072Z,4.00
2018-08-23T13:55:59.827Z,3.87
2018-08-23T13:58:28.391Z,3.90
2018-08-23T14:00:57.151Z,3.90
2018-08-23T14:03:25.650Z,4.20
2018-08-23T14:05:54.352Z,4.23
2018-08-23T14:08:23.016Z,3.97
2018-08-23T14:10:51.592Z,4.70
2018-08-23T14:13:20.200Z,4.60
2018-08-23T14:15:53.937Z,5.10
2018-08-23T14:18:22.561Z,4.00
2018-08-23T14:20:51.072Z,3.23
2018-08-23T14:23:19.668Z,3.67
2018-08-23T14:25:48.228Z,3.80
2018-08-23T14:28:16.787Z,4.17
2018-08-23T14:30:45.465Z,4.17
2018-08-23T14:33:14.033Z,3.83
2018-08-23T14:35:42.528Z,4.20
2018-08-23T14:38:11.070Z,4.50
2018-08-23T14:40:39.591Z,4.77
2018-08-23T14:43:08.122Z,4.13
2018-08-23T14:45:36.673Z,4.10
2018-08-23T14:48:10.634Z,4.90
2018-08-23T14:50:39.200Z,4.67
2018-08-23T14:53:07.796Z,4.87
2018-08-23T14:55:41.567Z,4.93
2018-08-23T14:58:11.401Z,4.33
2018-08-23T15:00:40.075Z,4.23
2018-08-23T15:03:08.600Z,4.60
2018-08-23T15:05:37.143Z,4.53
2018-08-23T15:08:05.759Z,4.80
2018-08-23T15:10:34.290Z,4.33
2018-08-23T15:13:02.931Z,4.20
2018-08-23T15:15:36.744Z,4.40
2018-08-23T15:18:05.434Z,4.90
2018-08-23T15:20:33.978Z,4.47
2018-08-23T15:23:02.801Z,3.80
2018-08-23T15:25:31.375Z,5.10
2018-08-23T15:28:00.186Z,5.70
2018-08-23T15:30:28.856Z,5.57
2018-08-23T15:32:57.485Z,5.63
2018-08-23T15:35:27.211Z,4.77
2018-08-23T15:37:55.801Z,5.50
2018-08-23T15:40:24.388Z,5.60
2018-08-23T15:42:53.008Z,8.80
2018-08-23T15:45:21.772Z,10.40
2018-08-23T15:47:50.759Z,9.43
2018-08-23T15:50:22.203Z,7.17
2018-08-23T15:52:51.374Z,8.37
2018-08-23T15:55:20.915Z,6.67
2018-08-23T15:57:49.371Z,7.47
2018-08-23T16:00:18.216Z,7.07
2018-08-23T16:02:47.722Z,7.40
2018-08-23T16:05:16.361Z,7.90
2018-08-23T16:07:44.978Z,6.43
2018-08-23T16:10:14.629Z,7.37
2018-08-23T16:12:43.287Z,5.97
2018-08-23T16:15:17.187Z,6.13
2018-08-23T16:17:51.129Z,7.00
2018-08-23T16:20:25.096Z,6.53
2018-08-23T16:22:53.655Z,6.10
2018-08-23T16:25:22.197Z,6.53
2018-08-23T16:27:51.087Z,7.60
2018-08-23T16:30:19.751Z,6.87
2018-08-23T16:32:48.528Z,7.13
2018-08-23T16:35:17.100Z,6.60
2018-08-23T16:37:45.683Z,6.30
2018-08-23T16:40:19.606Z,6.27
2018-08-23T16:42:48.184Z,6.00
2018-08-23T16:45:17.222Z,7.50
2018-08-23T16:47:45.785Z,6.00
2018-08-23T16:50:14.347Z,5.80
2018-08-23T16:52:43.064Z,5.17
2018-08-23T16:55:11.603Z,5.80
2018-08-23T16:57:40.215Z,5.20
2018-08-23T17:00:09.315Z,6.03
2018-08-23T17:02:39.518Z,4.50
2018-08-23T17:05:09.188Z,5.00
2018-08-23T17:07:38.650Z,5.40
2018-08-23T17:10:08.712Z,5.60
2018-08-23T17:12:37.231Z,5.30
2018-08-23T17:15:12.188Z,6.10
2018-08-23T17:17:44.223Z,5.50
2018-08-23T17:20:13.981Z,4.93
2018-08-23T17:22:42.567Z,5.83
2018-08-23T17:25:11.213Z,4.40
2018-08-23T17:27:41.195Z,4.70
2018-08-23T17:30:11.186Z,4.80
2018-08-23T17:32:40.178Z,4.50
2018-08-23T17:35:08.820Z,3.83
2018-08-23T17:37:37.361Z,4.70
2018-08-23T17:40:06.240Z,4.03
2018-08-23T17:42:40.053Z,4.43
2018-08-23T17:45:09.955Z,4.47
2018-08-23T17:47:39.845Z,5.60
2018-08-23T17:50:08.417Z,6.23
2018-08-23T17:52:37.006Z,6.30
2018-08-23T17:55:05.820Z,6.60
2018-08-23T17:57:34.364Z,6.13
2018-08-23T18:00:03.103Z,8.40
2018-08-23T18:02:31.625Z,7.07
2018-08-23T18:05:01.407Z,7.20
2018-08-23T18:07:30.041Z,12.70
2018-08-23T18:09:58.544Z,6.80
2018-08-23T18:12:27.043Z,5.50
2018-08-23T18:14:55.583Z,5.70
2018-08-23T18:17:24.995Z,6.30
2018-08-23T18:19:53.763Z,5.97
2018-08-23T18:22:22.523Z,6.13
2018-08-23T18:24:51.185Z,6.50
2018-08-23T18:27:19.741Z,7.00
2018-08-23T18:29:48.579Z,6.40
2018-08-23T18:32:17.174Z,6.33
2018-08-23T18:34:45.684Z,7.10
2018-08-23T18:37:14.923Z,6.17
2018-08-23T18:39:43.658Z,7.40
2018-08-23T18:42:13.798Z,6.90
2018-08-23T18:44:44.077Z,7.10
2018-08-23T18:47:13.072Z,6.73
2018-08-23T18:49:41.580Z,6.70
2018-08-23T18:52:10.192Z,6.30
2018-08-23T18:54:38.849Z,6.57
2018-08-23T18:57:09.665Z,6.13
2018-08-23T18:59:38.652Z,5.13
2018-08-23T19:02:07.209Z,5.23
2018-08-23T19:04:35.734Z,5.40
2018-08-23T19:07:06.455Z,5.57
2018-08-23T19:09:35.056Z,5.80
2018-08-23T19:12:05.528Z,6.13
2018-08-23T19:14:36.203Z,5.90
2018-08-23T19:17:11.901Z,5.47
2018-08-23T19:19:40.482Z,6.47
2018-08-23T19:22:09.759Z,6.43
2018-08-23T19:24:39.068Z,6.30
2018-08-23T19:27:07.640Z,6.40
2018-08-23T19:29:37.323Z,5.40
2018-08-23T19:32:07.171Z,6.73
2018-08-23T19:34:36.690Z,6.80
2018-08-23T19:37:05.268Z,6.40
2018-08-23T19:39:33.889Z,7.17
2018-08-23T19:42:03.353Z,7.63
2018-08-23T19:44:32.295Z,6.77
2018-08-23T19:47:06.173Z,6.20
2018-08-23T19:49:42.039Z,6.80
2018-08-23T19:52:10.670Z,6.27
2018-08-23T19:54:39.909Z,7.97
2018-08-23T19:57:08.433Z,7.93
2018-08-23T19:59:37.220Z,6.77
2018-08-23T20:02:05.851Z,7.00
2018-08-23T20:04:34.361Z,6.80
2018-08-23T20:07:02.839Z,7.07
2018-08-23T20:09:31.648Z,6.90
2018-08-23T20:12:00.176Z,7.00
2018-08-23T20:14:28.967Z,8.20
2018-08-23T20:16:57.536Z,6.87
2018-08-23T20:19:26.058Z,6.43
2018-08-23T20:21:54.599Z,6.50
2018-08-23T20:24:25.081Z,7.20
2018-08-23T20:26:53.940Z,7.60
2018-08-23T20:29:23.122Z,6.60
2018-08-23T20:31:51.735Z,7.77
2018-08-23T20:34:20.303Z,8.40
2018-08-23T20:36:49.284Z,6.63
2018-08-23T20:39:18.514Z,6.27
2018-08-23T20:41:47.648Z,6.90
2018-08-23T20:44:16.147Z,6.80
2018-08-23T20:46:44.708Z,6.60
2018-08-23T20:49:13.238Z,6.10
2018-08-23T20:51:41.815Z,6.60
2018-08-23T20:54:10.368Z,6.40
2018-08-23T20:56:38.939Z,5.17
2018-08-23T20:59:08.025Z,6.47
2018-08-23T21:01:36.580Z,5.87
2018-08-23T21:04:05.389Z,6.00
2018-08-23T21:06:33.995Z,5.87
2018-08-23T21:09:02.524Z,6.37
2018-08-23T21:11:31.251Z,6.20
2018-08-23T21:13:59.997Z,5.70
2018-08-23T21:16:28.498Z,5.97
2018-08-23T21:18:57.063Z,5.73
2018-08-23T21:21:25.628Z,5.00
2018-08-23T21:23:54.142Z,5.57
2018-08-23T21:26:22.733Z,4.97
2018-08-23T21:28:51.723Z,5.10
2018-08-23T21:31:20.264Z,5.80
2018-08-23T21:33:48.795Z,5.30
2018-08-23T21:36:17.443Z,5.80
2018-08-23T21:38:46.654Z,4.80
2018-08-23T21:41:15.187Z,5.40
2018-08-23T21:43:43.742Z,5.53
2018-08-23T21:46:12.222Z,5.80
2018-08-23T21:48:40.921Z,6.33
2018-08-23T21:51:09.530Z,5.50
2018-08-23T21:53:38.247Z,6.33
2018-08-23T21:56:07.448Z,6.57
2018-08-23T21:58:35.999Z,6.27
2018-08-23T22:01:05.855Z,5.80
2018-08-23T22:03:34.572Z,5.90
2018-08-23T22:06:03.324Z,5.50
2018-08-23T22:08:32.422Z,6.33
2018-08-23T22:11:00.936Z,6.10
2018-08-23T22:13:29.994Z,6.80
2018-08-23T22:15:58.584Z,5.80
2018-08-23T22:18:27.100Z,6.83
2018-08-23T22:20:56.593Z,6.10
2018-08-23T22:23:25.159Z,6.23
2018-08-23T22:25:53.670Z,6.47
2018-08-23T22:28:22.211Z,6.00
2018-08-23T22:30:50.696Z,5.90
2018-08-23T22:33:19.988Z,6.30
2018-08-23T22:35:48.685Z,6.93
2018-08-23T22:38:17.205Z,6.13
2018-08-23T22:40:45.686Z,7.03
2018-08-23T22:43:14.259Z,6.20
2018-08-23T22:45:42.887Z,5.70
2018-08-23T22:48:12.722Z,6.33
2018-08-23T22:50:41.223Z,6.20
2018-08-23T22:53:09.741Z,6.60
2018-08-23T22:55:38.236Z,6.50
2018-08-23T22:58:07.388Z,6.17
2018-08-23T23:00:40.459Z,6.90
2018-08-23T23:03:14.399Z,6.73
2018-08-23T23:05:43.714Z,7.23
2018-08-23T23:08:12.208Z,6.67
2018-08-23T23:10:41.015Z,5.70
2018-08-23T23:13:09.582Z,5.97
2018-08-23T23:15:38.077Z,6.27
2018-08-23T23:18:06.609Z,6.87
2018-08-23T23:20:35.144Z,7.70
2018-08-23T23:23:03.751Z,7.17
2018-08-23T23:25:32.307Z,6.53
2018-08-23T23:28:00.835Z,6.23
2018-08-23T23:30:29.352Z,7.53
2018-08-23T23:32:57.852Z,7.80
2018-08-23T23:35:26.567Z,6.33
2018-08-23T23:37:55.101Z,7.13
2018-08-23T23:40:23.596Z,7.00
2018-08-23T23:42:52.238Z,7.80
2018-08-23T23:45:20.748Z,7.43
2018-08-23T23:47:49.380Z,7.50
2018-08-23T23:50:17.886Z,6.90
2018-08-23T23:52:52.699Z,7.60
2018-08-23T23:55:21.381Z,6.70
2018-08-23T23:57:49.901Z,7.27
